Time;durP1;ratioP1;P1;durP2;ratioP2;P2;SDS_P1;SDS_P2;PMS_P1;PMS_P2;Temp;Humidity;BMP_temperature;BMP_pressure;BME280_temperature;BME280_humidity;BME280_pressure;Samples;Min_cycle;Max_cycle;Signal;HPM_P1;HPM_P2
2022/04/04 00:00:28;;;;;;;;;;;;;;;3.12;83.09;99720.66;1715298;84;20235;-58
2022/04/04 00:03:34;;;;;;;;;;;;;;;3.08;83.01;99719.59;1715498;84;20208;-58
2022/04/04 00:06:40;;;;;;;;;;;;;;;3.08;83.03;99730.90;1698660;84;20192;-57
2022/04/04 00:09:46;;;;;;;;;;;;;;;3.06;83.08;99734.23;1714467;84;20212;-59
2022/04/04 00:12:52;;;;;;;;;;;;;;;3.05;83.05;99733.89;1715336;84;20228;-60
2022/04/04 00:15:58;;;;;;;;;;;;;;;3.03;83.07;99740.80;1714381;84;20204;-59
2022/04/04 00:19:02;;;;;;;;;;;;;;;3.03;83.12;99738.09;1714132;84;20208;-59
2022/04/04 00:22:07;;;;;;;;;;;;;;;3.04;83.17;99744.36;1711561;83;20568;-59
2022/04/04 00:25:13;;;;;;;;;;;;;;;3.05;83.19;99746.06;1710342;84;20528;-59
2022/04/04 00:28:18;;;;;;;;;;;;;;;3.06;83.27;99745.91;1715331;84;20552;-60
2022/04/04 00:31:26;;;;;;;;;;;;;;;3.08;83.26;99749.82;1714895;84;20212;-59
2022/04/04 00:34:32;;;;;;;;;;;;;;;3.10;83.20;99754.59;1715391;84;20293;-59
2022/04/04 00:37:39;;;;;;;;;;;;;;;3.08;83.21;99749.33;1714972;84;20251;-59
2022/04/04 00:40:46;;;;;;;;;;;;;;;3.08;83.24;99754.73;1715408;84;20260;-59
2022/04/04 00:43:51;;;;;;;;;;;;;;;3.06;83.29;99763.48;1714350;84;20529;-58
2022/04/04 00:46:56;;;;;;;;;;;;;;;3.07;83.31;99767.05;1715426;84;20525;-58
2022/04/04 00:50:02;;;;;;;;;;;;;;;3.07;83.21;99776.52;1693489;83;20232;-57
2022/04/04 00:53:08;;;;;;;;;;;;;;;3.05;83.16;99775.80;1715373;83;20532;-57
2022/04/04 00:56:15;;;;;;;;;;;;;;;3.04;83.09;99783.56;1715141;84;20196;-58
2022/04/04 00:59:21;;;;;;;;;;;;;;;2.99;83.07;99783.13;1713908;84;20584;-59
2022/04/04 01:02:28;;;;;;;;;;;;;;;2.96;83.16;99782.07;1694860;83;20204;-59
2022/04/04 01:05:35;;;;;;;;;;;;;;;2.96;83.23;99785.64;1714697;84;20517;-60
2022/04/04 01:08:39;;;;;;;;;;;;;;;2.91;83.13;99784.34;1693013;83;20200;-60
2022/04/04 01:11:46;;;;;;;;;;;;;;;2.93;83.29;99785.06;1714890;84;20520;-58
2022/04/04 01:14:53;;;;;;;;;;;;;;;2.93;83.40;99787.25;1715404;84;20275;-59
2022/04/04 01:18:00;;;;;;;;;;;;;;;2.93;83.39;99791.30;1714987;84;20208;-59
2022/04/04 01:21:06;;;;;;;;;;;;;;;2.95;83.50;99796.08;1714919;84;20559;-58
2022/04/04 01:24:16;;;;;;;;;;;;;;;2.93;83.31;99794.52;1712416;83;20184;-58
2022/04/04 01:27:21;;;;;;;;;;;;;;;2.90;83.32;99797.52;1715008;84;20255;-58
2022/04/04 01:30:31;;;;;;;;;;;;;;;2.91;83.35;99792.45;1715337;84;20501;-57
2022/04/04 01:33:37;;;;;;;;;;;;;;;2.87;83.37;99797.28;1715543;84;20552;-59
2022/04/04 01:36:43;;;;;;;;;;;;;;;2.87;83.40;99801.33;1693763;85;20495;-59
2022/04/04 01:39:49;;;;;;;;;;;;;;;2.84;83.33;99802.11;1693824;85;20534;-58
2022/04/04 01:42:59;;;;;;;;;;;;;;;2.83;83.51;99803.11;1693874;85;20198;-59
2022/04/04 01:49:28;;;;;;;;;;;;;;;2.81;83.59;99813.20;1693795;85;20534;-58
2022/04/04 01:52:32;;;;;;;;;;;;;;;2.82;83.67;99816.28;1693899;85;20279;-57
2022/04/04 01:55:38;;;;;;;;;;;;;;;2.81;83.71;99818.61;1693778;85;20210;-57
2022/04/04 01:58:45;;;;;;;;;;;;;;;2.80;83.74;99825.02;1693835;85;20190;-58
2022/04/04 02:01:51;;;;;;;;;;;;;;;2.77;83.73;99836.97;1693922;85;20530;-59
2022/04/04 02:04:56;;;;;;;;;;;;;;;2.76;83.89;99826.27;1693156;85;20198;-58
2022/04/04 02:07:49;;;;;;;;;;;;;;;2.76;83.90;99839.30;1693381;85;20214;-59
2022/04/04 02:10:54;;;;;;;;;;;;;;;2.75;83.96;99839.44;1693243;85;20206;-57
2022/04/04 02:14:02;;;;;;;;;;;;;;;2.75;84.00;99842.14;1693826;85;20270;-57
2022/04/04 02:17:07;;;;;;;;;;;;;;;2.73;84.01;99851.74;1693825;85;20550;-58
2022/04/04 02:20:15;;;;;;;;;;;;;;;2.70;83.90;99856.08;1693774;85;20226;-58
2022/04/04 02:23:21;;;;;;;;;;;;;;;2.66;83.98;99855.15;1693754;85;20253;-58
2022/04/04 02:26:27;;;;;;;;;;;;;;;2.63;84.01;99855.43;1695579;84;20534;-58
2022/04/04 02:29:34;;;;;;;;;;;;;;;2.60;83.96;99867.34;1695639;85;20589;-58
2022/04/04 02:32:39;;;;;;;;;;;;;;;2.57;84.14;99873.03;1696254;84;20526;-58
2022/04/04 02:35:45;;;;;;;;;;;;;;;2.57;84.28;99868.14;1695033;85;20297;-58
2022/04/04 02:38:53;;;;;;;;;;;;;;;2.58;84.42;99870.70;1715477;84;20204;-59
2022/04/04 02:41:57;;;;;;;;;;;;;;;2.60;84.46;99868.70;1698104;83;20240;-58
2022/04/04 02:45:03;;;;;;;;;;;;;;;2.59;84.39;99877.81;1664320;86;20538;-58
2022/04/04 02:48:09;;;;;;;;;;;;;;;2.60;84.40;99893.53;1680749;85;20246;-58
2022/04/04 02:51:13;;;;;;;;;;;;;;;2.53;84.26;99891.01;1677636;85;20191;-58
2022/04/04 02:54:18;;;;;;;;;;;;;;;2.48;84.34;99898.17;1718199;83;20207;-59
2022/04/04 02:57:23;;;;;;;;;;;;;;;2.49;84.43;99908.49;1715157;83;20208;-58
2022/04/04 03:00:29;;;;;;;;;;;;;;;2.48;84.29;99906.77;1718236;83;20532;-58
2022/04/04 03:03:33;;;;;;;;;;;;;;;2.47;84.22;99911.81;1718174;83;20281;-59
2022/04/04 03:06:40;;;;;;;;;;;;;;;2.44;84.20;99905.34;1715669;84;20224;-57
2022/04/04 03:09:44;;;;;;;;;;;;;;;2.41;84.21;99912.38;1717991;83;20208;-57
2022/04/04 03:12:50;;;;;;;;;;;;;;;2.38;84.29;99918.05;1715657;84;20200;-59
2022/04/04 03:15:56;;;;;;;;;;;;;;;2.38;84.44;99913.47;1717763;83;20176;-60
2022/04/04 03:19:00;;;;;;;;;;;;;;;2.42;84.56;99920.33;1717907;83;20212;-59
2022/04/04 03:22:07;;;;;;;;;;;;;;;2.45;84.43;99939.45;1717699;83;20536;-60
2022/04/04 03:25:14;;;;;;;;;;;;;;;2.41;84.27;99933.45;1710654;83;20296;-60
2022/04/04 03:28:20;;;;;;;;;;;;;;;2.42;84.26;99935.19;1664628;86;20248;-58
2022/04/04 03:31:26;;;;;;;;;;;;;;;2.44;84.36;99945.34;1664374;86;20212;-60
2022/04/04 03:34:32;;;;;;;;;;;;;;;2.44;84.15;99960.71;1663560;86;20228;-58
2022/04/04 03:37:39;;;;;;;;;;;;;;;2.44;84.11;99963.41;1640847;86;20228;-59
2022/04/04 03:40:46;;;;;;;;;;;;;;;2.42;83.98;99959.98;1663729;86;20252;-58
2022/04/04 03:43:51;;;;;;;;;;;;;;;2.41;83.87;99966.38;1689252;84;20539;-60
2022/04/04 03:46:57;;;;;;;;;;;;;;;2.38;83.71;99963.95;1688626;85;20590;-58
2022/04/04 03:50:01;;;;;;;;;;;;;;;2.35;83.70;99975.00;1688771;85;20210;-56
2022/04/04 03:53:06;;;;;;;;;;;;;;;2.37;83.83;99975.23;1689133;85;20198;-56
2022/04/04 03:56:11;;;;;;;;;;;;;;;2.41;83.85;99986.13;1690030;84;20198;-57
2022/04/04 03:59:18;;;;;;;;;;;;;;;2.44;83.82;99991.77;1670275;84;20186;-56
2022/04/04 04:02:23;;;;;;;;;;;;;;;2.43;83.61;99987.34;1688788;84;20218;-56
2022/04/04 04:05:30;;;;;;;;;;;;;;;2.40;83.35;99990.31;1688869;84;20210;-56
2022/04/04 04:08:36;;;;;;;;;;;;;;;2.37;83.33;99996.84;1689055;85;20202;-57
2022/04/04 04:11:41;;;;;;;;;;;;;;;2.37;83.30;100001.38;1718798;83;20296;-56
2022/04/04 04:14:47;;;;;;;;;;;;;;;2.38;83.33;100009.87;1714344;84;20256;-57
2022/04/04 04:17:53;;;;;;;;;;;;;;;2.38;83.27;100013.92;1714570;83;20228;-56
2022/04/04 04:20:59;;;;;;;;;;;;;;;2.37;83.19;100022.50;1714572;83;20627;-58
2022/04/04 04:24:06;;;;;;;;;;;;;;;2.36;83.08;100025.34;1714908;84;20188;-58
2022/04/04 04:27:13;;;;;;;;;;;;;;;2.31;83.02;100022.17;1707787;84;20188;-56
2022/04/04 04:30:19;;;;;;;;;;;;;;;2.30;83.07;100030.77;1686998;85;20229;-56
2022/04/04 04:33:24;;;;;;;;;;;;;;;2.31;83.03;100032.98;1687021;85;20222;-56
2022/04/04 04:36:29;;;;;;;;;;;;;;;2.30;82.90;100034.81;1687079;85;20218;-56
2022/04/04 04:39:33;;;;;;;;;;;;;;;2.31;82.83;100041.08;1686220;85;20207;-56
2022/04/04 04:42:37;;;;;;;;;;;;;;;2.33;82.69;100035.06;1686530;85;20576;-56
2022/04/04 04:45:42;;;;;;;;;;;;;;;2.39;82.81;100042.62;1686792;85;20223;-56
2022/04/04 04:48:47;;;;;;;;;;;;;;;2.46;82.61;100049.19;1686823;85;20183;-55
2022/04/04 04:51:54;;;;;;;;;;;;;;;2.50;82.40;100064.16;1634836;88;20236;-55
2022/04/04 04:55:00;;;;;;;;;;;;;;;2.55;82.25;100059.22;1671413;85;20266;-56
2022/04/04 04:58:07;;;;;;;;;;;;;;;2.60;82.04;100065.09;1678581;85;20254;-55
2022/04/04 05:01:14;;;;;;;;;;;;;;;2.67;81.83;100076.56;1668538;85;20222;-55
2022/04/04 05:04:21;;;;;;;;;;;;;;;2.73;81.65;100079.21;1649653;87;20257;-56
2022/04/04 05:07:29;;;;;;;;;;;;;;;2.77;81.35;100080.19;1662906;86;20580;-57
2022/04/04 05:10:37;;;;;;;;;;;;;;;2.82;80.80;100097.34;1645203;85;20542;-58
2022/04/04 05:13:42;;;;;;;;;;;;;;;2.80;80.21;100082.62;1686076;85;20230;-56
2022/04/04 05:16:46;;;;;;;;;;;;;;;2.83;79.73;100086.41;1661557;85;20220;-54
2022/04/04 05:19:52;;;;;;;;;;;;;;;2.91;79.68;100089.78;1675644;83;20234;-56
2022/04/04 05:22:59;;;;;;;;;;;;;;;3.03;79.21;100100.36;1677794;85;20218;-57
2022/04/04 05:26:04;;;;;;;;;;;;;;;3.11;78.81;100105.09;1690397;85;20221;-54
2022/04/04 05:29:10;;;;;;;;;;;;;;;3.23;78.47;100108.56;1638285;85;20221;-57
2022/04/04 05:32:16;;;;;;;;;;;;;;;3.32;77.69;100105.03;1646195;86;20584;-57
2022/04/04 05:35:21;;;;;;;;;;;;;;;3.39;77.15;100117.03;1667220;84;20206;-57
2022/04/04 05:38:26;;;;;;;;;;;;;;;3.45;76.84;100117.34;1689288;83;20254;-56
2022/04/04 05:41:30;;;;;;;;;;;;;;;3.50;75.96;100117.79;1686001;84;20251;-57
2022/04/04 05:44:34;;;;;;;;;;;;;;;3.53;75.08;100125.63;1663268;85;20211;-56
2022/04/04 05:47:39;;;;;;;;;;;;;;;3.56;74.87;100111.81;1690470;83;20243;-54
2022/04/04 05:50:45;;;;;;;;;;;;;;;3.66;74.93;100124.02;1697422;83;20263;-55
2022/04/04 05:53:51;;;;;;;;;;;;;;;3.70;74.58;100122.73;1647101;86;20213;-55
2022/04/04 05:56:58;;;;;;;;;;;;;;;3.77;74.59;100128.84;1641850;85;20259;-56
2022/04/04 06:00:03;;;;;;;;;;;;;;;3.85;74.09;100133.55;1655261;86;20636;-54
2022/04/04 06:03:08;;;;;;;;;;;;;;;3.85;74.02;100144.38;1686956;84;20227;-54
2022/04/04 06:06:15;;;;;;;;;;;;;;;3.84;73.72;100135.39;1662006;86;20544;-55
2022/04/04 06:09:19;;;;;;;;;;;;;;;3.81;73.62;100146.50;1662243;86;20260;-56
2022/04/04 06:12:26;;;;;;;;;;;;;;;3.83;73.65;100144.52;1662313;86;20252;-56
2022/04/04 06:15:34;;;;;;;;;;;;;;;3.90;73.55;100157.83;1662640;86;20235;-55
2022/04/04 06:18:39;;;;;;;;;;;;;;;3.98;73.18;100161.22;1662476;86;20248;-56
2022/04/04 06:21:44;;;;;;;;;;;;;;;4.09;73.17;100179.54;1680849;85;20226;-55
2022/04/04 06:24:49;;;;;;;;;;;;;;;4.17;72.20;100158.55;1684082;85;20254;-57
2022/04/04 06:27:53;;;;;;;;;;;;;;;4.20;71.52;100160.45;1689828;84;20260;-55
2022/04/04 06:30:59;;;;;;;;;;;;;;;4.27;71.20;100162.97;1658491;85;20576;-55
2022/04/04 06:34:07;;;;;;;;;;;;;;;4.35;70.49;100183.44;1674797;85;20677;-55
2022/04/04 06:37:14;;;;;;;;;;;;;;;4.48;70.35;100175.03;1681567;85;20236;-56
2022/04/04 06:40:21;;;;;;;;;;;;;;;4.67;69.10;100191.78;1670167;85;20219;-57
2022/04/04 06:43:26;;;;;;;;;;;;;;;4.73;68.68;100186.64;1659916;85;20490;-56
2022/04/04 06:46:32;;;;;;;;;;;;;;;4.79;68.01;100176.57;1660460;85;20260;-57
2022/04/04 06:49:38;;;;;;;;;;;;;;;4.85;67.40;100186.87;1657766;86;20200;-54
2022/04/04 06:52:42;;;;;;;;;;;;;;;4.89;67.36;100196.41;1669888;85;20596;-54
2022/04/04 06:55:51;;;;;;;;;;;;;;;4.95;66.93;100208.03;1684307;85;20536;-56
2022/04/04 06:58:56;;;;;;;;;;;;;;;4.90;67.10;100205.41;1679202;85;20303;-57
2022/04/04 07:02:02;;;;;;;;;;;;;;;4.88;67.13;100204.69;1674217;85;20302;-55
2022/04/04 07:05:08;;;;;;;;;;;;;;;4.87;66.65;100207.05;1670590;85;20640;-56
2022/04/04 07:08:15;;;;;;;;;;;;;;;4.88;65.82;100215.54;1684128;85;20230;-55
2022/04/04 07:11:22;;;;;;;;;;;;;;;4.86;65.92;100219.75;1684368;85;20214;-56
2022/04/04 07:14:29;;;;;;;;;;;;;;;4.88;65.72;100219.61;1673709;85;20228;-57
2022/04/04 07:17:33;;;;;;;;;;;;;;;4.89;64.94;100224.02;1672395;85;20261;-57
2022/04/04 07:20:39;;;;;;;;;;;;;;;4.87;64.17;100228.75;1672374;85;20535;-58
2022/04/04 07:23:44;;;;;;;;;;;;;;;4.90;64.30;100225.75;1684923;85;20615;-58
2022/04/04 07:26:51;;;;;;;;;;;;;;;5.00;64.46;100223.86;1682360;83;20566;-55
2022/04/04 07:29:57;;;;;;;;;;;;;;;5.06;63.50;100240.95;1669570;85;20525;-57
2022/04/04 07:33:04;;;;;;;;;;;;;;;5.09;62.37;100236.58;1665838;84;20223;-57
2022/04/04 07:36:11;;;;;;;;;;;;;;;5.13;61.70;100242.06;1687823;85;20250;-56
2022/04/04 07:39:15;;;;;;;;;;;;;;;5.14;59.96;100237.84;1702123;84;20208;-58
2022/04/04 07:42:21;;;;;;;;;;;;;;;5.14;60.16;100247.86;1693821;83;20554;-56
2022/04/04 07:45:29;;;;;;;;;;;;;;;5.19;59.50;100239.63;1704618;82;20240;-59
2022/04/04 07:48:41;;;;;;;;;;;;;;;5.22;59.01;100233.91;1694968;83;20208;-59
2022/04/04 07:51:49;;;;;;;;;;;;;;;5.28;57.91;100232.48;1645192;84;20221;-57
2022/04/04 07:54:55;;;;;;;;;;;;;;;5.35;58.31;100244.45;1654948;84;20221;-57
2022/04/04 07:58:00;;;;;;;;;;;;;;;5.43;58.39;100241.86;1694523;84;20212;-58
2022/04/04 08:01:06;;;;;;;;;;;;;;;5.54;58.09;100247.98;1694124;84;20695;-57
2022/04/04 08:04:12;;;;;;;;;;;;;;;5.62;56.98;100259.45;1656286;84;20635;-57
2022/04/04 08:07:19;;;;;;;;;;;;;;;5.66;55.90;100250.03;1712275;84;20215;-57
2022/04/04 08:10:25;;;;;;;;;;;;;;;5.73;55.80;100259.27;1692598;83;20210;-56
2022/04/04 08:13:32;;;;;;;;;;;;;;;5.79;54.98;100254.59;1657846;85;20227;-55
2022/04/04 08:16:39;;;;;;;;;;;;;;;5.85;54.96;100262.22;1662815;85;20206;-55
2022/04/04 08:19:44;;;;;;;;;;;;;;;5.98;54.20;100261.34;1698021;84;20215;-58
2022/04/04 08:22:52;;;;;;;;;;;;;;;6.13;52.08;100287.53;1684911;84;20216;-57
2022/04/04 08:25:56;;;;;;;;;;;;;;;6.15;50.42;100261.07;1677285;84;20248;-57
2022/04/04 08:29:00;;;;;;;;;;;;;;;6.20;51.58;100279.97;1680219;85;20213;-57
2022/04/04 08:32:05;;;;;;;;;;;;;;;6.25;50.59;100282.27;1677392;85;20224;-56
2022/04/04 08:35:12;;;;;;;;;;;;;;;6.33;49.57;100269.61;1696166;84;20212;-57
2022/04/04 08:38:16;;;;;;;;;;;;;;;6.47;49.33;100269.09;1698087;83;20678;-56
2022/04/04 08:41:21;;;;;;;;;;;;;;;6.47;49.08;100275.06;1713883;84;20216;-55
2022/04/04 08:44:26;;;;;;;;;;;;;;;6.51;49.11;100269.66;1712925;83;20539;-56
2022/04/04 08:47:44;;;;;;;;;;;;;;;6.68;49.04;100270.17;1713811;83;20204;-56
2022/04/04 08:50:51;;;;;;;;;;;;;;;6.78;49.12;100266.39;1705871;84;20243;-58
2022/04/04 08:53:57;;;;;;;;;;;;;;;6.90;47.13;100288.27;1681937;84;20245;-57
2022/04/04 08:57:02;;;;;;;;;;;;;;;7.09;45.62;100269.06;1706904;84;20215;-59
2022/04/04 09:00:05;;;;;;;;;;;;;;;7.33;46.43;100293.78;1672532;83;20223;-56
2022/04/04 09:03:13;;;;;;;;;;;;;;;7.44;43.20;100279.05;1685446;83;20248;-57
2022/04/04 09:06:19;;;;;;;;;;;;;;;7.40;41.32;100271.70;1711873;84;20240;-57
2022/04/04 09:09:28;;;;;;;;;;;;;;;7.48;41.76;100278.57;1714634;84;20255;-57
2022/04/04 09:12:34;;;;;;;;;;;;;;;7.63;42.19;100272.91;1712121;83;20275;-57
2022/04/04 09:16:01;;;;;;;;;;;;;;;7.71;41.90;100273.99;1714076;84;20251;-57
2022/04/04 09:19:08;;;;;;;;;;;;;;;7.77;40.86;100285.61;1713532;84;20220;-57
2022/04/04 09:22:16;;;;;;;;;;;;;;;7.75;39.70;100270.78;1714220;84;20503;-56
2022/04/04 09:25:20;;;;;;;;;;;;;;;7.84;40.52;100265.72;1713911;84;20276;-57
2022/04/04 09:28:25;;;;;;;;;;;;;;;7.80;40.05;100274.38;1713965;83;20215;-56
2022/04/04 09:31:31;;;;;;;;;;;;;;;7.64;41.03;100284.67;1709814;84;20264;-58
2022/04/04 09:34:35;;;;;;;;;;;;;;;7.67;40.38;100285.71;1660376;85;20495;-57
2022/04/04 09:37:40;;;;;;;;;;;;;;;7.84;39.52;100274.39;1707317;83;20213;-58
2022/04/04 09:40:47;;;;;;;;;;;;;;;7.99;40.54;100280.44;1656401;86;20560;-57
2022/04/04 09:44:04;;;;;;;;;;;;;;;8.21;41.13;100283.99;1672573;86;20199;-57
2022/04/04 09:47:09;;;;;;;;;;;;;;;8.42;41.13;100292.62;1672271;86;20575;-58
2022/04/04 09:50:16;;;;;;;;;;;;;;;8.39;40.64;100286.62;1670654;85;20226;-57
2022/04/04 09:53:26;;;;;;;;;;;;;;;8.32;40.49;100295.14;1687583;85;20581;-56
2022/04/04 09:56:33;;;;;;;;;;;;;;;8.31;40.55;100300.27;1689213;84;20284;-59
2022/04/04 09:59:38;;;;;;;;;;;;;;;8.31;38.63;100312.53;1686977;84;20229;-58
2022/04/04 10:02:52;;;;;;;;;;;;;;;8.20;38.47;100305.94;1677159;84;20217;-58
2022/04/04 10:06:12;;;;;;;;;;;;;;;8.26;38.26;100313.53;1685270;84;20217;-58
2022/04/04 10:09:18;;;;;;;;;;;;;;;8.38;38.73;100304.89;1682318;85;20240;-59
2022/04/04 10:12:22;;;;;;;;;;;;;;;8.72;39.37;100304.86;1662963;85;20580;-61
2022/04/04 10:15:29;;;;;;;;;;;;;;;9.10;38.40;100315.19;1695636;83;20210;-60
2022/04/04 10:18:36;;;;;;;;;;;;;;;9.05;37.79;100318.39;1692210;83;20208;-63
2022/04/04 10:21:41;;;;;;;;;;;;;;;8.90;36.48;100324.67;1728058;82;20210;-61
2022/04/04 10:24:48;;;;;;;;;;;;;;;8.77;36.93;100324.28;1700719;82;20208;-60
2022/04/04 10:27:53;;;;;;;;;;;;;;;8.75;37.87;100332.64;1667631;84;20224;-63
2022/04/04 10:30:58;;;;;;;;;;;;;;;8.75;38.81;100324.45;1702922;83;20526;-62
2022/04/04 10:34:05;;;;;;;;;;;;;;;8.78;38.17;100321.92;1721937;82;20214;-62
2022/04/04 10:37:14;;;;;;;;;;;;;;;8.99;38.78;100314.97;1718030;82;20495;-62
2022/04/04 10:40:35;;;;;;;;;;;;;;;9.14;37.86;100317.91;1689157;85;20206;-62
2022/04/04 10:43:45;;;;;;;;;;;;;;;9.24;37.77;100320.48;1695138;84;20572;-61
2022/04/04 10:46:56;;;;;;;;;;;;;;;9.37;37.21;100320.31;1710441;84;20212;-64
2022/04/04 10:50:03;;;;;;;;;;;;;;;9.38;36.27;100322.55;1662039;86;20253;-64
2022/04/04 10:53:11;;;;;;;;;;;;;;;9.45;35.96;100335.87;1679296;85;20207;-65
2022/04/04 10:56:21;;;;;;;;;;;;;;;9.50;35.55;100315.20;1681576;85;20509;-66
2022/04/04 10:59:31;;;;;;;;;;;;;;;9.61;35.59;100321.69;1667730;85;20249;-67
2022/04/04 11:02:36;;;;;;;;;;;;;;;9.63;36.44;100323.75;1696116;83;20239;-62
2022/04/04 11:09:16;;;;;;;;;;;;;;;9.70;35.20;100347.15;1689525;83;20569;-61
2022/04/04 11:12:23;;;;;;;;;;;;;;;9.31;35.62;100343.38;1676525;85;20643;-63
2022/04/04 11:15:49;;;;;;;;;;;;;;;9.13;35.98;100334.46;1674750;86;20630;-63
2022/04/04 11:19:04;;;;;;;;;;;;;;;9.06;35.44;100341.09;1666144;85;20273;-68
2022/04/04 11:22:12;;;;;;;;;;;;;;;8.99;36.86;100358.66;1689366;83;20212;-63
2022/04/04 11:25:22;;;;;;;;;;;;;;;8.88;38.04;100351.27;1670447;84;20581;-65
2022/04/04 11:28:32;;;;;;;;;;;;;;;8.75;38.52;100353.64;1689599;84;20222;-66
2022/04/04 11:31:40;;;;;;;;;;;;;;;8.73;38.89;100346.98;1662073;84;20224;-63
2022/04/04 11:34:44;;;;;;;;;;;;;;;8.98;39.51;100357.45;1681299;83;20251;-64
2022/04/04 11:37:52;;;;;;;;;;;;;;;9.35;37.94;100367.45;1646936;87;20249;-63
2022/04/04 11:40:57;;;;;;;;;;;;;;;9.57;36.23;100361.33;1646830;87;20205;-64
2022/04/04 11:44:01;;;;;;;;;;;;;;;9.44;35.37;100364.20;1646413;87;20604;-62
2022/04/04 11:47:13;;;;;;;;;;;;;;;9.16;35.45;100360.06;1645864;87;20262;-63
2022/04/04 11:50:23;;;;;;;;;;;;;;;8.86;36.14;100369.19;1646099;87;20248;-65
2022/04/04 11:53:26;;;;;;;;;;;;;;;8.72;36.92;100362.99;1631079;87;20302;-62
2022/04/04 11:56:33;;;;;;;;;;;;;;;8.59;36.65;100366.68;1644071;86;20245;-62
2022/04/04 11:59:43;;;;;;;;;;;;;;;8.71;36.92;100368.12;1633558;86;20504;-61
2022/04/04 12:02:48;;;;;;;;;;;;;;;8.87;36.70;100363.23;1639306;85;20227;-62
2022/04/04 12:05:53;;;;;;;;;;;;;;;8.93;35.53;100358.46;1646784;85;20215;-64
2022/04/04 12:09:03;;;;;;;;;;;;;;;8.89;35.37;100354.38;1651038;85;20215;-61
2022/04/04 12:12:14;;;;;;;;;;;;;;;8.96;35.77;100354.90;1657255;85;20260;-64
2022/04/04 12:15:19;;;;;;;;;;;;;;;9.01;35.75;100359.35;1628739;88;20207;-61
2022/04/04 12:18:32;;;;;;;;;;;;;;;9.12;34.84;100349.15;1644401;86;20225;-63
2022/04/04 12:21:37;;;;;;;;;;;;;;;9.22;35.77;100347.97;1654446;87;20220;-68
2022/04/04 12:24:58;;;;;;;;;;;;;;;9.24;35.35;100368.28;1654333;86;20584;-63
2022/04/04 12:28:06;;;;;;;;;;;;;;;9.20;34.62;100355.46;1636779;85;20229;-64
2022/04/04 12:31:26;;;;;;;;;;;;;;;9.29;34.56;100370.87;1626067;86;20577;-64
2022/04/04 12:34:34;;;;;;;;;;;;;;;9.46;34.69;100362.16;1653988;86;20250;-62
2022/04/04 12:37:47;;;;;;;;;;;;;;;9.77;33.65;100359.95;1663116;84;20228;-61
2022/04/04 12:40:52;;;;;;;;;;;;;;;9.98;33.45;100345.25;1675235;85;20571;-63
2022/04/04 12:44:08;;;;;;;;;;;;;;;10.11;33.37;100359.80;1706961;84;20497;-62
2022/04/04 12:47:21;;;;;;;;;;;;;;;10.00;32.79;100361.48;1706017;84;20216;-62
2022/04/04 12:50:28;;;;;;;;;;;;;;;9.70;32.98;100361.69;1678346;85;20246;-61
2022/04/04 12:53:33;;;;;;;;;;;;;;;9.57;33.10;100368.16;1679813;85;20223;-61
2022/04/04 12:56:38;;;;;;;;;;;;;;;9.52;33.46;100371.05;1649842;84;20246;-61
2022/04/04 13:00:00;;;;;;;;;;;;;;;9.57;33.94;100368.16;1682217;83;20219;-64
2022/04/04 13:03:05;;;;;;;;;;;;;;;9.67;33.64;100377.56;1702084;83;20499;-61
2022/04/04 13:06:17;;;;;;;;;;;;;;;9.77;33.83;100361.83;1656345;86;20212;-62
2022/04/04 13:09:31;;;;;;;;;;;;;;;9.75;33.55;100370.20;1692115;85;20427;-62
2022/04/04 13:12:41;;;;;;;;;;;;;;;9.64;34.03;100354.67;1686468;84;20212;-62
2022/04/04 13:15:50;;;;;;;;;;;;;;;9.75;34.15;100363.36;1650450;86;20577;-62
2022/04/04 13:18:57;;;;;;;;;;;;;;;9.96;33.43;100356.86;1658077;86;20288;-61
2022/04/04 13:22:08;;;;;;;;;;;;;;;10.01;32.08;100355.84;1636513;87;20509;-60
2022/04/04 13:25:12;;;;;;;;;;;;;;;10.05;32.10;100359.09;1665687;85;20250;-59
2022/04/04 13:28:19;;;;;;;;;;;;;;;9.97;31.93;100367.30;1662051;86;20221;-60
2022/04/04 13:31:28;;;;;;;;;;;;;;;9.97;32.78;100365.40;1662691;85;20228;-59
2022/04/04 13:34:32;;;;;;;;;;;;;;;10.06;32.53;100356.18;1675625;85;20582;-59
2022/04/04 13:37:40;;;;;;;;;;;;;;;9.98;31.13;100358.92;1690383;85;20218;-58
2022/04/04 13:40:47;;;;;;;;;;;;;;;9.81;31.10;100369.54;1690342;85;20259;-57
2022/04/04 13:43:52;;;;;;;;;;;;;;;9.63;31.46;100368.84;1687237;84;20210;-57
2022/04/04 13:46:55;;;;;;;;;;;;;;;9.64;32.10;100360.97;1675708;85;20215;-57
2022/04/04 13:49:59;;;;;;;;;;;;;;;9.66;31.75;100364.90;1681147;85;20301;-59
2022/04/04 13:53:05;;;;;;;;;;;;;;;9.48;31.85;100363.69;1699938;83;20212;-59
2022/04/04 13:56:12;;;;;;;;;;;;;;;9.34;32.29;100358.06;1690527;83;20218;-57
2022/04/04 13:59:18;;;;;;;;;;;;;;;9.20;32.53;100361.45;1680804;83;20210;-57
2022/04/04 14:02:27;;;;;;;;;;;;;;;9.17;33.18;100368.09;1686097;83;20545;-58
2022/04/04 14:05:33;;;;;;;;;;;;;;;9.04;33.79;100359.52;1678500;84;20215;-59
2022/04/04 14:08:40;;;;;;;;;;;;;;;9.00;34.29;100366.34;1699108;83;20283;-58
2022/04/04 14:11:45;;;;;;;;;;;;;;;9.00;34.17;100360.88;1690162;84;20244;-57
2022/04/04 14:14:50;;;;;;;;;;;;;;;8.97;33.84;100371.61;1679097;84;20220;-58
2022/04/04 14:17:53;;;;;;;;;;;;;;;8.82;34.05;100369.69;1690190;85;20826;-57
2022/04/04 14:20:58;;;;;;;;;;;;;;;8.72;34.42;100373.08;1691003;84;20205;-57
2022/04/04 14:24:04;;;;;;;;;;;;;;;8.55;34.33;100382.19;1690854;84;20231;-58
2022/04/04 14:27:10;;;;;;;;;;;;;;;8.37;34.74;100373.24;1694092;83;20253;-57
2022/04/04 14:30:16;;;;;;;;;;;;;;;8.37;35.04;100375.97;1700420;84;20331;-61
2022/04/04 14:33:21;;;;;;;;;;;;;;;8.65;35.08;100368.78;1708992;84;20204;-58
2022/04/04 14:36:27;;;;;;;;;;;;;;;9.24;34.57;100363.69;1703784;83;20729;-58
2022/04/04 14:39:33;;;;;;;;;;;;;;;9.37;34.07;100362.66;1647236;87;20209;-56
2022/04/04 14:42:40;;;;;;;;;;;;;;;9.19;34.66;100375.61;1632880;87;20501;-58
2022/04/04 14:45:45;;;;;;;;;;;;;;;9.01;34.91;100367.55;1650488;86;20220;-58
2022/04/04 14:48:51;;;;;;;;;;;;;;;8.86;35.19;100373.81;1651004;87;20228;-59
2022/04/04 14:51:59;;;;;;;;;;;;;;;8.61;34.78;100379.66;1650636;87;20221;-57
2022/04/04 14:55:03;;;;;;;;;;;;;;;8.39;34.92;100385.69;1650877;87;20233;-58
2022/04/04 14:58:07;;;;;;;;;;;;;;;8.18;34.86;100374.27;1651621;87;20550;-58
2022/04/04 15:01:14;;;;;;;;;;;;;;;8.09;35.47;100375.23;1651160;87;20225;-59
2022/04/04 15:04:24;;;;;;;;;;;;;;;8.50;35.57;100380.48;1645577;87;20223;-59
2022/04/04 15:07:30;;;;;;;;;;;;;;;9.21;34.86;100377.67;1630953;88;20230;-60
2022/04/04 15:10:37;;;;;;;;;;;;;;;9.94;33.62;100375.31;1664544;85;20242;-59
2022/04/04 15:13:48;;;;;;;;;;;;;;;10.43;32.92;100370.67;1680619;85;20226;-58
2022/04/04 15:17:03;;;;;;;;;;;;;;;10.68;32.66;100368.70;1684580;85;20270;-58
2022/04/04 15:20:10;;;;;;;;;;;;;;;10.73;32.81;100374.50;1683673;85;20198;-57
2022/04/04 15:23:16;;;;;;;;;;;;;;;10.37;33.04;100374.08;1685018;85;20238;-58
2022/04/04 15:26:25;;;;;;;;;;;;;;;9.65;33.75;100376.36;1684670;85;20254;-57
2022/04/04 15:29:33;;;;;;;;;;;;;;;9.08;34.79;100381.39;1685077;85;20238;-58
2022/04/04 15:32:39;;;;;;;;;;;;;;;8.69;35.24;100382.43;1648244;86;20307;-58
2022/04/04 15:35:44;;;;;;;;;;;;;;;8.50;35.96;100385.94;1622216;87;20336;-58
2022/04/04 15:38:49;;;;;;;;;;;;;;;8.39;36.67;100380.73;1619704;86;20192;-59
2022/04/04 15:41:58;;;;;;;;;;;;;;;8.24;36.97;100383.23;1619019;87;20263;-59
2022/04/04 15:45:05;;;;;;;;;;;;;;;8.04;37.51;100382.20;1614838;88;20259;-58
2022/04/04 15:48:12;;;;;;;;;;;;;;;7.97;38.06;100379.25;1642390;87;20209;-58
2022/04/04 15:51:21;;;;;;;;;;;;;;;7.99;38.33;100384.55;1621847;85;20216;-58
2022/04/04 15:54:25;;;;;;;;;;;;;;;7.95;38.64;100384.00;1640969;86;20272;-58
2022/04/04 15:57:30;;;;;;;;;;;;;;;7.90;39.17;100375.44;1682470;83;20517;-59
2022/04/04 16:00:37;;;;;;;;;;;;;;;7.82;39.33;100381.36;1683696;83;20232;-59
2022/04/04 16:03:45;;;;;;;;;;;;;;;7.66;39.73;100379.33;1631001;87;20242;-58
2022/04/04 16:06:54;;;;;;;;;;;;;;;7.47;40.11;100384.45;1704331;84;20477;-58
2022/04/04 16:10:01;;;;;;;;;;;;;;;7.27;40.47;100381.55;1652003;87;20221;-59
2022/04/04 16:13:08;;;;;;;;;;;;;;;7.09;40.91;100386.10;1634142;87;20205;-59
2022/04/04 16:16:13;;;;;;;;;;;;;;;6.93;41.37;100388.64;1668819;86;20281;-59
2022/04/04 16:19:17;;;;;;;;;;;;;;;6.79;41.85;100385.56;1669262;85;20227;-60